createdAt,value
2023-05-01T00:00:24.108Z,3.30
2023-05-01T00:02:52.729Z,3.15
2023-05-01T00:05:21.197Z,3.22
2023-05-01T00:07:49.819Z,4.05
2023-05-01T00:10:19.416Z,3.10
2023-05-01T00:12:48.995Z,3.70
2023-05-01T00:15:17.390Z,3.03
2023-05-01T00:17:45.838Z,3.67
2023-05-01T00:20:14.318Z,3.40
2023-05-01T00:22:42.502Z,3.63
2023-05-01T00:25:11.624Z,4.00
2023-05-01T00:27:39.824Z,3.22
2023-05-01T00:30:10.767Z,3.50
2023-05-01T00:32:39.620Z,3.53
2023-05-01T00:35:08.614Z,3.97
2023-05-01T00:37:36.963Z,3.65
2023-05-01T00:40:06.035Z,3.25
2023-05-01T00:42:37.217Z,3.35
2023-05-01T00:45:06.577Z,3.25
2023-05-01T00:47:37.238Z,2.95
2023-05-01T00:50:06.891Z,3.17
2023-05-01T00:52:35.511Z,3.05
2023-05-01T00:55:05.434Z,2.90
2023-05-01T00:57:34.036Z,4.28
2023-05-01T01:00:02.233Z,3.28
2023-05-01T01:02:30.686Z,3.20
2023-05-01T01:05:01.627Z,3.80
2023-05-01T01:07:41.033Z,3.42
2023-05-01T01:10:28.714Z,3.97
2023-05-01T01:15:46.929Z,3.65
2023-05-01T01:18:25.512Z,3.85
2023-05-01T01:21:02.954Z,3.75
2023-05-01T01:24:10.227Z,3.35
2023-05-01T01:27:33.615Z,3.78
2023-05-01T01:30:35.845Z,4.30
2023-05-01T01:33:56.597Z,2.78
2023-05-01T01:36:43.995Z,3.85
2023-05-01T01:39:44.638Z,3.50
2023-05-01T01:42:26.989Z,3.28
2023-05-01T01:44:59.844Z,3.33
2023-05-01T01:47:33.376Z,2.58
2023-05-01T01:50:09.598Z,3.50
2023-05-01T01:52:41.875Z,4.13
2023-05-01T01:55:15.513Z,3.42
2023-05-01T01:57:48.052Z,3.00
2023-05-01T02:00:17.803Z,3.80
2023-05-01T02:02:49.851Z,3.03
2023-05-01T02:05:23.024Z,3.20
2023-05-01T02:07:53.750Z,3.05
2023-05-01T02:10:25.485Z,3.58
2023-05-01T02:12:58.317Z,3.60
2023-05-01T02:15:29.310Z,3.05
2023-05-01T02:17:59.452Z,3.78
2023-05-01T02:20:30.961Z,3.20
2023-05-01T02:23:01.051Z,3.38
2023-05-01T02:25:35.896Z,3.25
2023-05-01T02:28:13.232Z,2.97
2023-05-01T02:30:41.672Z,2.92
2023-05-01T02:33:10.237Z,4.50
2023-05-01T02:35:44.377Z,3.78
2023-05-01T02:38:13.858Z,3.20
2023-05-01T02:40:47.922Z,3.13
2023-05-01T02:43:21.530Z,4.47
2023-05-01T02:45:52.802Z,3.30
2023-05-01T02:48:30.795Z,3.55
2023-05-01T02:51:03.584Z,2.67
2023-05-01T02:53:33.726Z,3.70
2023-05-01T02:56:03.826Z,3.70
2023-05-01T02:58:33.561Z,3.03
2023-05-01T03:01:01.981Z,3.75
2023-05-01T03:03:30.264Z,3.92
2023-05-01T03:06:00.360Z,3.20
2023-05-01T03:08:28.817Z,3.60
2023-05-01T03:10:57.045Z,4.15
2023-05-01T03:13:25.134Z,3.67
2023-05-01T03:15:53.496Z,2.65
2023-05-01T03:18:21.740Z,3.28
2023-05-01T03:20:53.725Z,2.78
2023-05-01T03:23:23.290Z,2.78
2023-05-01T03:25:51.747Z,2.60
2023-05-01T03:28:21.075Z,2.42
2023-05-01T03:30:49.351Z,3.00
2023-05-01T03:33:17.550Z,3.88
2023-05-01T03:35:45.873Z,2.45
2023-05-01T03:38:14.098Z,3.10
2023-05-01T03:40:43.765Z,2.50
2023-05-01T03:43:11.937Z,2.85
2023-05-01T03:45:41.281Z,2.60
2023-05-01T03:48:10.920Z,3.10
2023-05-01T03:50:39.264Z,2.53
2023-05-01T03:53:07.561Z,3.97
2023-05-01T03:55:35.975Z,2.40
2023-05-01T03:58:05.831Z,3.50
2023-05-01T04:00:34.871Z,2.50
2023-05-01T04:03:03.261Z,2.90
2023-05-01T04:05:31.947Z,2.95
2023-05-01T04:08:00.563Z,3.22
2023-05-01T04:10:29.142Z,2.05
2023-05-01T04:12:57.533Z,2.78
2023-05-01T04:15:27.413Z,1.98
2023-05-01T04:17:57.003Z,2.20
2023-05-01T04:20:25.391Z,2.47
2023-05-01T04:22:53.581Z,3.10
2023-05-01T04:25:21.847Z,2.55
2023-05-01T04:27:50.275Z,2.53
2023-05-01T04:30:18.600Z,2.63
2023-05-01T04:32:48.315Z,2.47
2023-05-01T04:35:16.675Z,2.38
2023-05-01T04:37:44.896Z,2.85
2023-05-01T04:40:15.270Z,2.97
2023-05-01T04:42:43.574Z,2.67
2023-05-01T04:45:12.928Z,2.53
2023-05-01T04:47:41.238Z,2.70
2023-05-01T04:50:12.528Z,2.30
2023-05-01T04:52:40.784Z,2.13
2023-05-01T04:55:11.615Z,3.63
2023-05-01T04:57:39.954Z,2.40
2023-05-01T05:00:09.637Z,2.83
2023-05-01T05:02:38.061Z,2.38
2023-05-01T05:05:07.306Z,2.00
2023-05-01T05:07:37.101Z,2.30
2023-05-01T05:10:06.047Z,2.60
2023-05-01T05:12:35.086Z,3.08
2023-05-01T05:15:03.517Z,3.33
2023-05-01T05:17:31.794Z,2.28
2023-05-01T05:20:00.025Z,2.20
2023-05-01T05:22:28.161Z,1.98
2023-05-01T05:25:00.164Z,2.08
2023-05-01T05:27:29.097Z,2.00
2023-05-01T05:29:57.523Z,2.58
2023-05-01T05:32:26.145Z,2.60
2023-05-01T05:34:54.354Z,2.40
2023-05-01T05:37:22.548Z,2.40
2023-05-01T05:39:50.804Z,1.88
2023-05-01T05:42:20.708Z,1.90
2023-05-01T05:44:48.978Z,1.70
2023-05-01T05:47:17.453Z,1.98
2023-05-01T05:49:45.802Z,2.13
2023-05-01T05:52:14.720Z,1.70
2023-05-01T05:54:43.064Z,1.88
2023-05-01T05:57:11.984Z,1.48
2023-05-01T05:59:41.589Z,1.85
2023-05-01T06:02:09.761Z,1.95
2023-05-01T06:04:38.031Z,1.52
2023-05-01T06:07:06.672Z,1.70
2023-05-01T06:09:34.961Z,1.92
2023-05-01T06:12:05.564Z,1.55
2023-05-01T06:14:33.974Z,2.05
2023-05-01T06:17:03.616Z,1.30
2023-05-01T06:19:31.896Z,1.70
2023-05-01T06:22:00.125Z,1.17
2023-05-01T06:24:28.499Z,1.60
2023-05-01T06:26:56.686Z,1.50
2023-05-01T06:29:25.288Z,2.17
2023-05-01T06:31:53.520Z,1.95
2023-05-01T06:34:23.235Z,1.70
2023-05-01T06:36:51.479Z,2.03
2023-05-01T06:39:19.679Z,1.38
2023-05-01T06:41:48.034Z,1.65
2023-05-01T06:44:16.435Z,2.08
2023-05-01T06:46:44.726Z,1.70
2023-05-01T06:49:13.000Z,1.58
2023-05-01T06:51:42.652Z,1.60
2023-05-01T06:54:11.157Z,1.30
2023-05-01T06:56:39.773Z,1.50
2023-05-01T06:59:08.985Z,2.20
2023-05-01T07:01:37.369Z,1.95
2023-05-01T07:04:06.023Z,1.15
2023-05-01T07:06:35.211Z,1.15
2023-05-01T07:09:05.435Z,1.52
2023-05-01T07:11:34.608Z,1.02
2023-05-01T07:14:02.734Z,1.58
2023-05-01T07:16:31.398Z,1.00
2023-05-01T07:18:59.609Z,1.17
2023-05-01T07:21:28.523Z,1.40
2023-05-01T07:23:56.856Z,1.50
2023-05-01T07:26:27.636Z,1.40
2023-05-01T07:28:56.056Z,1.85
2023-05-01T07:31:24.371Z,1.05
2023-05-01T07:33:54.146Z,1.20
2023-05-01T07:36:22.509Z,1.05
2023-05-01T07:38:51.014Z,1.73
2023-05-01T07:41:19.441Z,1.48
2023-05-01T07:43:49.085Z,1.38
2023-05-01T07:46:17.423Z,1.13
2023-05-01T07:48:45.957Z,1.27
2023-05-01T07:51:14.712Z,1.35
2023-05-01T07:53:42.980Z,1.38
2023-05-01T07:56:11.761Z,1.35
2023-05-01T07:58:41.562Z,1.23
2023-05-01T08:01:11.389Z,1.70
2023-05-01T08:03:39.871Z,1.20
2023-05-01T08:06:08.068Z,1.38
2023-05-01T08:08:36.370Z,1.20
2023-05-01T08:11:04.598Z,1.08
2023-05-01T08:13:33.000Z,1.02
2023-05-01T08:16:03.653Z,1.02
2023-05-01T08:18:33.333Z,0.98
2023-05-01T08:21:01.575Z,0.90
2023-05-01T08:23:29.929Z,1.20
2023-05-01T08:25:58.553Z,0.98
2023-05-01T08:28:26.798Z,1.15
2023-05-01T08:30:54.999Z,1.35
2023-05-01T08:33:23.098Z,1.10
2023-05-01T08:35:53.679Z,1.30
2023-05-01T08:38:21.903Z,0.70
2023-05-01T08:40:56.611Z,1.00
2023-05-01T08:43:26.325Z,0.95
2023-05-01T08:45:58.788Z,1.00
2023-05-01T08:48:28.975Z,1.20
2023-05-01T08:51:01.662Z,1.30
2023-05-01T08:53:33.090Z,1.33
2023-05-01T08:56:07.327Z,1.30
2023-05-01T08:58:38.024Z,1.90
2023-05-01T09:01:07.718Z,1.42
2023-05-01T09:03:38.483Z,1.25
2023-05-01T09:06:10.447Z,1.10
2023-05-01T09:08:38.852Z,0.90
2023-05-01T09:11:07.384Z,1.02
2023-05-01T09:13:35.642Z,1.27
2023-05-01T09:16:06.912Z,1.25
2023-05-01T09:18:36.145Z,1.23
2023-05-01T09:21:04.897Z,1.20
2023-05-01T09:23:36.006Z,1.20
2023-05-01T09:26:06.686Z,1.90
2023-05-01T09:28:45.628Z,1.20
2023-05-01T09:31:24.819Z,0.98
2023-05-01T09:33:55.499Z,1.13
2023-05-01T09:36:25.717Z,1.30
2023-05-01T09:38:55.601Z,0.98
2023-05-01T09:41:25.048Z,1.15
2023-05-01T09:43:55.760Z,1.33
2023-05-01T09:46:25.538Z,1.27
2023-05-01T09:48:56.356Z,1.10
2023-05-01T09:51:28.073Z,1.40
2023-05-01T09:53:59.816Z,1.10
2023-05-01T09:56:29.338Z,1.40
2023-05-01T09:58:59.907Z,1.40
2023-05-01T10:01:41.720Z,1.30
2023-05-01T10:04:10.721Z,1.38
2023-05-01T10:06:39.377Z,1.58
2023-05-01T10:09:17.664Z,1.08
2023-05-01T10:11:50.264Z,1.90
2023-05-01T10:14:18.375Z,1.15
2023-05-01T10:16:46.707Z,1.15
2023-05-01T10:19:18.074Z,1.30
2023-05-01T10:21:46.217Z,1.60
2023-05-01T10:24:16.994Z,1.48
2023-05-01T10:26:45.782Z,1.63
2023-05-01T10:29:14.195Z,1.40
2023-05-01T10:31:42.784Z,1.10
2023-05-01T10:34:12.944Z,1.80
2023-05-01T10:36:47.756Z,1.27
2023-05-01T10:39:33.172Z,1.27
2023-05-01T10:42:11.452Z,1.05
2023-05-01T10:44:39.858Z,1.55
2023-05-01T10:47:45.581Z,1.40
2023-05-01T10:50:16.062Z,1.30
2023-05-01T10:53:19.222Z,1.48
2023-05-01T10:55:50.281Z,1.20
2023-05-01T10:59:04.694Z,1.15
2023-05-01T11:01:35.498Z,1.10
2023-05-01T11:04:08.177Z,1.30
2023-05-01T11:06:37.818Z,0.80
2023-05-01T11:09:41.175Z,1.30
2023-05-01T11:12:13.375Z,1.58
2023-05-01T11:15:05.825Z,1.70
2023-05-01T11:17:47.588Z,1.98
2023-05-01T11:20:51.098Z,1.63
2023-05-01T11:23:25.469Z,1.38
2023-05-01T11:26:05.865Z,1.52
2023-05-01T11:28:36.718Z,1.30
2023-05-01T11:31:05.146Z,1.30
2023-05-01T11:33:34.540Z,1.35
2023-05-01T11:36:04.992Z,1.17
2023-05-01T11:38:33.190Z,1.42
2023-05-01T11:41:04.289Z,1.60
2023-05-01T11:43:33.930Z,1.30
2023-05-01T11:46:05.041Z,1.55
2023-05-01T11:48:33.576Z,1.50
2023-05-01T11:51:01.757Z,1.55
2023-05-01T11:53:30.649Z,1.73
2023-05-01T11:55:59.474Z,1.42
2023-05-01T11:58:36.717Z,1.90
2023-05-01T12:01:07.296Z,1.75
2023-05-01T12:03:45.683Z,1.50
2023-05-01T12:06:15.034Z,1.70
2023-05-01T12:08:46.111Z,1.85
2023-05-01T12:11:14.857Z,1.63
2023-05-01T12:13:47.810Z,1.98
2023-05-01T12:16:16.096Z,2.08
2023-05-01T12:18:44.958Z,1.90
2023-05-01T12:21:19.300Z,1.30
2023-05-01T12:23:51.682Z,2.15
2023-05-01T12:26:23.566Z,1.65
2023-05-01T12:29:01.692Z,2.35
2023-05-01T12:31:31.985Z,2.78
2023-05-01T12:34:01.924Z,3.58
2023-05-01T12:36:34.751Z,3.95
2023-05-01T12:39:05.283Z,3.75
2023-05-01T12:41:35.409Z,5.60
2023-05-01T12:44:17.823Z,4.85
2023-05-01T12:46:53.590Z,5.22
2023-05-01T12:49:23.133Z,3.90
2023-05-01T12:51:54.529Z,3.65
2023-05-01T12:54:24.785Z,3.80
2023-05-01T12:56:54.154Z,3.67
2023-05-01T12:59:25.531Z,3.90
2023-05-01T13:02:01.008Z,4.53
2023-05-01T13:04:32.073Z,3.45
2023-05-01T13:07:01.172Z,2.90
2023-05-01T13:09:33.044Z,3.25
2023-05-01T13:12:05.212Z,3.88
2023-05-01T13:14:40.383Z,3.08
2023-05-01T13:17:09.769Z,3.00
2023-05-01T13:19:39.198Z,2.13
2023-05-01T13:22:07.636Z,1.88
2023-05-01T13:24:40.475Z,3.03
2023-05-01T13:27:10.454Z,2.03
2023-05-01T13:29:41.792Z,2.15
2023-05-01T13:32:13.462Z,1.92
2023-05-01T13:34:43.889Z,1.95
2023-05-01T13:37:13.284Z,2.25
2023-05-01T13:39:43.576Z,2.38
2023-05-01T13:42:13.586Z,2.35
2023-05-01T13:44:52.042Z,3.97
2023-05-01T13:47:20.725Z,3.70
2023-05-01T13:49:49.425Z,5.05
2023-05-01T13:52:19.681Z,5.00
2023-05-01T13:54:49.539Z,3.65
2023-05-01T13:57:17.978Z,4.22
2023-05-01T13:59:48.916Z,3.92
2023-05-01T14:02:22.540Z,4.00
2023-05-01T14:04:50.763Z,2.92
2023-05-01T14:07:20.580Z,2.70
2023-05-01T14:09:55.194Z,3.08
2023-05-01T14:12:31.314Z,2.85
2023-05-01T14:15:02.135Z,3.45
2023-05-01T14:17:33.246Z,3.33
2023-05-01T14:20:02.237Z,3.10
2023-05-01T14:22:31.436Z,3.90
2023-05-01T14:24:59.935Z,2.70
2023-05-01T14:27:28.178Z,4.72
2023-05-01T14:29:56.274Z,3.78
2023-05-01T14:32:26.288Z,3.13
2023-05-01T14:34:54.358Z,2.58
2023-05-01T14:37:22.391Z,2.70
2023-05-01T14:39:50.485Z,1.70
2023-05-01T14:42:18.499Z,1.75
2023-05-01T14:44:46.551Z,1.60
2023-05-01T14:47:21.941Z,1.80
2023-05-01T14:49:54.469Z,2.10
2023-05-01T14:52:22.565Z,1.63
2023-05-01T14:54:52.852Z,1.55
2023-05-01T14:57:21.164Z,2.10
2023-05-01T14:59:49.207Z,1.98
2023-05-01T15:02:18.990Z,2.05
2023-05-01T15:04:47.424Z,1.60
2023-05-01T15:07:17.258Z,1.70
2023-05-01T15:09:47.931Z,2.28
2023-05-01T15:12:16.222Z,1.98
2023-05-01T15:14:44.940Z,1.52
2023-05-01T15:17:17.362Z,1.40
2023-05-01T15:19:54.222Z,1.73
2023-05-01T15:22:27.129Z,1.20
2023-05-01T15:24:55.154Z,1.10
2023-05-01T15:27:23.148Z,1.20
2023-05-01T15:29:51.130Z,0.80
2023-05-01T15:32:19.521Z,0.88
2023-05-01T15:34:47.598Z,1.00
2023-05-01T15:37:15.632Z,1.17
2023-05-01T15:39:44.984Z,0.50
2023-05-01T15:42:14.890Z,0.93
2023-05-01T15:44:43.107Z,0.73
2023-05-01T15:47:11.335Z,0.93
2023-05-01T15:49:39.417Z,1.00
2023-05-01T15:52:07.576Z,1.30
2023-05-01T15:54:35.850Z,0.80
2023-05-01T15:57:07.873Z,1.00
2023-05-01T15:59:36.145Z,1.00
2023-05-01T16:02:05.860Z,1.17
2023-05-01T16:04:33.901Z,1.65
2023-05-01T16:07:08.120Z,1.55
2023-05-01T16:09:36.286Z,1.00
2023-05-01T16:12:08.285Z,0.60
2023-05-01T16:14:36.917Z,1.50
2023-05-01T16:17:06.634Z,2.42
2023-05-01T16:19:36.736Z,3.15
2023-05-01T16:22:05.266Z,3.55
2023-05-01T16:24:33.769Z,4.65
2023-05-01T16:27:02.261Z,4.28
2023-05-01T16:29:34.469Z,3.25
2023-05-01T16:32:05.871Z,4.22
2023-05-01T16:34:34.484Z,2.85
2023-05-01T16:37:02.608Z,2.95
2023-05-01T16:39:30.730Z,3.10
2023-05-01T16:41:58.923Z,3.63
2023-05-01T16:44:27.400Z,3.63
2023-05-01T16:46:59.240Z,3.10
2023-05-01T16:49:28.249Z,3.70
2023-05-01T16:51:58.472Z,3.83
2023-05-01T16:54:32.056Z,3.35
2023-05-01T16:57:00.674Z,3.83
2023-05-01T16:59:28.833Z,5.10
2023-05-01T17:01:58.361Z,3.42
2023-05-01T17:04:26.881Z,4.45
2023-05-01T17:06:56.090Z,4.32
2023-05-01T17:09:24.359Z,4.80
2023-05-01T17:11:52.351Z,4.78
2023-05-01T17:14:20.379Z,4.78
2023-05-01T17:16:50.394Z,4.32
2023-05-01T17:19:19.973Z,5.25
2023-05-01T17:21:47.985Z,4.32
2023-05-01T17:24:16.385Z,4.72
2023-05-01T17:26:44.455Z,4.65
2023-05-01T17:29:12.460Z,4.15
2023-05-01T17:31:40.928Z,4.65
2023-05-01T17:34:08.998Z,4.35
2023-05-01T17:36:38.417Z,3.72
2023-05-01T17:39:06.505Z,3.53
2023-05-01T17:41:34.559Z,4.28
2023-05-01T17:44:02.653Z,3.72
2023-05-01T17:46:30.808Z,3.40
2023-05-01T17:48:59.006Z,3.47
2023-05-01T17:51:27.471Z,4.10
2023-05-01T17:53:56.923Z,3.58
2023-05-01T17:56:25.783Z,4.07
2023-05-01T17:58:54.488Z,4.82
2023-05-01T18:01:22.633Z,4.15
2023-05-01T18:03:51.309Z,5.47
2023-05-01T18:06:19.555Z,4.13
2023-05-01T18:08:49.159Z,4.53
2023-05-01T18:11:18.893Z,4.88
2023-05-01T18:13:48.093Z,4.70
2023-05-01T18:16:17.340Z,5.22
2023-05-01T18:18:45.797Z,6.00
2023-05-01T18:21:14.614Z,5.20
2023-05-01T18:23:42.866Z,5.68
2023-05-01T18:26:10.973Z,5.63
2023-05-01T18:28:40.588Z,6.10
2023-05-01T18:31:09.320Z,5.25
2023-05-01T18:33:37.404Z,6.38
2023-05-01T18:36:06.402Z,5.85
2023-05-01T18:38:34.460Z,6.03
2023-05-01T18:41:02.959Z,6.18
2023-05-01T18:43:32.226Z,7.22
2023-05-01T18:46:01.716Z,7.82
2023-05-01T18:48:29.805Z,7.60
2023-05-01T18:51:08.599Z,8.13
2023-05-01T18:53:37.226Z,8.75
2023-05-01T18:56:06.123Z,8.10
2023-05-01T18:58:34.414Z,8.95
2023-05-01T19:01:05.862Z,7.97
2023-05-01T19:03:33.923Z,11.05
2023-05-01T19:06:02.113Z,9.23
2023-05-01T19:08:31.509Z,9.68
2023-05-01T19:10:59.561Z,10.20
2023-05-01T19:13:27.582Z,11.00
2023-05-01T19:15:55.889Z,11.13
2023-05-01T19:18:25.468Z,10.25
2023-05-01T19:20:53.573Z,12.10
2023-05-01T19:23:21.667Z,12.95
2023-05-01T19:25:50.662Z,11.80
2023-05-01T19:28:18.687Z,10.90
2023-05-01T19:30:46.664Z,11.32
2023-05-01T19:33:14.775Z,13.18
2023-05-01T19:35:44.996Z,12.80
2023-05-01T19:38:13.074Z,13.00
2023-05-01T19:40:42.309Z,13.90
2023-05-01T19:43:10.382Z,15.45
2023-05-01T19:45:38.420Z,13.63
2023-05-01T19:48:07.679Z,14.35
2023-05-01T19:50:35.895Z,14.75
2023-05-01T19:53:05.338Z,14.48
2023-05-01T19:55:33.506Z,13.77
2023-05-01T19:58:01.548Z,14.93
2023-05-01T20:00:29.487Z,14.57
2023-05-01T20:02:57.675Z,14.90
2023-05-01T20:05:28.044Z,13.55
2023-05-01T20:07:57.943Z,13.02
2023-05-01T20:10:27.508Z,12.52
2023-05-01T20:12:55.853Z,14.25
2023-05-01T20:15:24.053Z,13.52
2023-05-01T20:17:52.282Z,15.50
2023-05-01T20:20:21.031Z,15.43
2023-05-01T20:22:52.643Z,17.95
2023-05-01T20:25:20.709Z,16.70
2023-05-01T20:27:50.148Z,16.10
2023-05-01T20:30:18.185Z,16.67
2023-05-01T20:32:46.244Z,15.32
2023-05-01T20:35:14.739Z,16.40
2023-05-01T20:37:42.973Z,16.63
2023-05-01T20:40:12.780Z,16.17
2023-05-01T20:42:40.966Z,16.70
2023-05-01T20:45:11.681Z,17.15
2023-05-01T20:47:39.827Z,14.63
2023-05-01T20:50:08.679Z,14.68
2023-05-01T20:52:36.721Z,14.32
2023-05-01T20:55:05.887Z,16.02
2023-05-01T20:57:36.758Z,15.73
2023-05-01T21:00:06.271Z,16.55
2023-05-01T21:02:38.832Z,16.98
2023-05-01T21:05:08.968Z,18.40
2023-05-01T21:07:38.019Z,27.67
2023-05-01T21:10:08.557Z,24.10
2023-05-01T21:12:36.939Z,19.90
2023-05-01T21:15:06.428Z,23.25
2023-05-01T21:17:38.326Z,25.27
2023-05-01T21:20:13.751Z,21.85
2023-05-01T21:22:44.997Z,19.20
2023-05-01T21:25:16.097Z,19.45
2023-05-01T21:27:44.170Z,22.27
2023-05-01T21:30:16.804Z,21.83
2023-05-01T21:32:46.381Z,21.75
2023-05-01T21:35:16.674Z,24.17
2023-05-01T21:37:46.136Z,20.30
2023-05-01T21:40:15.299Z,21.95
2023-05-01T21:42:43.581Z,19.75
2023-05-01T21:45:14.957Z,23.95
2023-05-01T21:47:48.035Z,24.00
2023-05-01T21:50:18.920Z,23.50
2023-05-01T21:52:48.784Z,21.05
2023-05-01T21:55:20.412Z,19.60
2023-05-01T21:57:49.855Z,19.90
2023-05-01T22:00:19.163Z,21.25
2023-05-01T22:02:51.216Z,20.02
2023-05-01T22:05:22.466Z,18.38
2023-05-01T22:07:54.444Z,21.23
2023-05-01T22:10:22.553Z,22.88
2023-05-01T22:12:50.661Z,21.35
2023-05-01T22:15:18.992Z,21.58
2023-05-01T22:17:48.412Z,21.80
2023-05-01T22:20:16.448Z,22.33
2023-05-01T22:22:44.626Z,23.60
2023-05-01T22:25:13.386Z,21.77
2023-05-01T22:27:41.745Z,23.23
2023-05-01T22:30:11.165Z,24.23
2023-05-01T22:32:39.427Z,25.00
2023-05-01T22:35:10.142Z,21.15
2023-05-01T22:37:38.326Z,25.17
2023-05-01T22:40:08.532Z,25.42
2023-05-01T22:42:36.634Z,27.75
2023-05-01T22:45:05.450Z,23.33
2023-05-01T22:47:33.520Z,21.38
2023-05-01T22:50:01.927Z,25.20
2023-05-01T22:52:31.622Z,20.70
2023-05-01T22:54:59.702Z,23.42
2023-05-01T22:57:27.772Z,23.65
2023-05-01T22:59:56.056Z,23.05
2023-05-01T23:02:25.626Z,22.10
2023-05-01T23:04:55.761Z,23.67
2023-05-01T23:07:23.819Z,26.73
2023-05-01T23:09:53.243Z,27.48
2023-05-01T23:12:23.585Z,26.27
2023-05-01T23:14:51.583Z,25.60
2023-05-01T23:17:19.659Z,27.13
2023-05-01T23:19:47.957Z,28.45
2023-05-01T23:22:16.042Z,28.02
2023-05-01T23:24:48.210Z,29.98
2023-05-01T23:27:19.908Z,28.42
2023-05-01T23:29:57.875Z,26.60
2023-05-01T23:32:29.301Z,25.48
2023-05-01T23:35:04.237Z,25.65
2023-05-01T23:37:32.335Z,29.75
2023-05-01T23:40:01.809Z,32.45
2023-05-01T23:42:31.779Z,32.72
2023-05-01T23:45:00.514Z,35.20
2023-05-01T23:47:28.970Z,31.80
2023-05-01T23:49:57.325Z,32.47
2023-05-01T23:52:25.755Z,32.08
2023-05-01T23:54:55.174Z,33.47
2023-05-01T23:57:23.311Z,34.05
2023-05-01T23:59:52.883Z,33.53
